Time;durP1;ratioP1;P1;durP2;ratioP2;P2;SDS_P1;SDS_P2;PMS_P1;PMS_P2;Temp;Humidity;BMP_temperature;BMP_pressure;BME280_temperature;BME280_humidity;BME280_pressure;Samples;Min_cycle;Max_cycle;Signal;HPM_P1;HPM_P2
2022/09/25 00:00:11;;;;;;;;;;;19.20;95.00;;;;;;5036501;28;19919;-69
2022/09/25 00:02:37;;;;;;;;;;;19.20;94.90;;;;;;5037885;28;19974;-69
2022/09/25 00:05:02;;;;;;;;;;;19.10;95.00;;;;;;5039301;28;19915;-69
2022/09/25 00:07:28;;;;;;;;;;;19.20;95.00;;;;;;5038570;28;20008;-69
2022/09/25 00:09:54;;;;;;;;;;;19.20;95.00;;;;;;5036655;28;19919;-69
2022/09/25 00:12:19;;;;;;;;;;;19.20;95.00;;;;;;5033904;28;19916;-69
2022/09/25 00:14:48;;;;;;;;;;;19.20;95.00;;;;;;5036825;28;20190;-69
2022/09/25 00:17:14;;;;;;;;;;;19.10;95.20;;;;;;5037962;28;19909;-69
2022/09/25 00:19:51;;;;;;;;;;;19.10;95.00;;;;;;5038358;28;19920;-68
2022/09/25 00:22:18;;;;;;;;;;;19.10;95.00;;;;;;5036727;28;20271;-68
2022/09/25 00:24:44;;;;;;;;;;;19.10;95.00;;;;;;5036375;28;20270;-69
2022/09/25 00:27:09;;;;;;;;;;;19.10;95.00;;;;;;5040405;28;19913;-68
2022/09/25 00:29:35;;;;;;;;;;;19.10;95.10;;;;;;5038281;28;19936;-68
2022/09/25 00:32:01;;;;;;;;;;;19.10;95.00;;;;;;5037957;28;20229;-68
2022/09/25 00:34:27;;;;;;;;;;;19.10;95.00;;;;;;5038613;28;19908;-69
2022/09/25 00:36:53;;;;;;;;;;;19.10;95.10;;;;;;5037884;28;19943;-69
2022/09/25 00:39:19;;;;;;;;;;;19.10;95.00;;;;;;5036910;28;19913;-68
2022/09/25 00:41:44;;;;;;;;;;;19.10;95.00;;;;;;5038050;28;20413;-69
2022/09/25 00:44:28;;;;;;;;;;;19.10;95.30;;;;;;5038282;28;19909;-69
2022/09/25 00:46:54;;;;;;;;;;;19.10;95.00;;;;;;5039491;28;20168;-69
2022/09/25 00:49:23;;;;;;;;;;;19.00;95.00;;;;;;5039553;28;19972;-69
2022/09/25 00:52:06;;;;;;;;;;;19.10;95.10;;;;;;5038659;28;19923;-69
2022/09/25 00:54:31;;;;;;;;;;;19.10;95.10;;;;;;5037464;28;19974;-69
2022/09/25 00:56:58;;;;;;;;;;;19.00;95.10;;;;;;5037001;28;19916;-69
2022/09/25 00:59:26;;;;;;;;;;;19.10;95.10;;;;;;5035378;28;19924;-68
2022/09/25 01:01:52;;;;;;;;;;;19.00;95.10;;;;;;5036793;28;20187;-69
2022/09/25 01:04:18;;;;;;;;;;;19.00;95.10;;;;;;5036251;28;19909;-68
2022/09/25 01:06:44;;;;;;;;;;;19.00;95.10;;;;;;5036656;28;19917;-68
2022/09/25 01:09:10;;;;;;;;;;;19.00;95.10;;;;;;5035285;28;20011;-68
2022/09/25 01:11:35;;;;;;;;;;;19.00;95.20;;;;;;5035823;28;19909;-68
2022/09/25 01:14:03;;;;;;;;;;;19.00;95.20;;;;;;5034678;28;19909;-68
2022/09/25 01:16:50;;;;;;;;;;;19.00;95.20;;;;;;5035576;28;19916;-68
2022/09/25 01:19:38;;;;;;;;;;;19.00;95.10;;;;;;5034051;28;19948;-68
2022/09/25 01:22:13;;;;;;;;;;;19.00;95.20;;;;;;5027641;28;19996;-68
2022/09/25 01:24:38;;;;;;;;;;;19.00;95.10;;;;;;5034408;28;20011;-68
2022/09/25 01:27:22;;;;;;;;;;;19.00;95.20;;;;;;5033951;28;20038;-68
2022/09/25 01:30:03;;;;;;;;;;;19.00;95.20;;;;;;5034239;28;19936;-68
2022/09/25 01:32:44;;;;;;;;;;;19.00;95.10;;;;;;5035309;28;19921;-68
2022/09/25 01:35:25;;;;;;;;;;;19.00;95.20;;;;;;5034531;28;20275;-68
2022/09/25 01:37:52;;;;;;;;;;;18.90;95.10;;;;;;5036184;28;19909;-68
2022/09/25 01:40:32;;;;;;;;;;;18.90;95.10;;;;;;5035932;28;20186;-68
2022/09/25 01:43:04;;;;;;;;;;;18.90;95.10;;;;;;5035730;28;19909;-68
2022/09/25 01:45:45;;;;;;;;;;;18.90;95.10;;;;;;5036620;28;20190;-68
2022/09/25 01:48:12;;;;;;;;;;;18.90;95.10;;;;;;5036220;28;20333;-68
2022/09/25 01:50:45;;;;;;;;;;;18.90;95.20;;;;;;5037431;28;19909;-68
2022/09/25 01:53:14;;;;;;;;;;;18.90;95.20;;;;;;5037209;28;19909;-68
2022/09/25 01:55:42;;;;;;;;;;;18.90;95.20;;;;;;5036243;28;20245;-68
2022/09/25 01:58:11;;;;;;;;;;;18.90;95.20;;;;;;5037509;28;20290;-68
2022/09/25 02:00:39;;;;;;;;;;;18.90;95.20;;;;;;5036302;28;19909;-68
2022/09/25 02:03:11;;;;;;;;;;;18.90;95.20;;;;;;5033928;28;19949;-68
2022/09/25 02:05:40;;;;;;;;;;;18.90;95.20;;;;;;5036238;28;20261;-68
2022/09/25 02:08:10;;;;;;;;;;;18.90;95.30;;;;;;5034050;28;19909;-69
2022/09/25 02:10:38;;;;;;;;;;;18.90;95.30;;;;;;5036290;28;19920;-68
2022/09/25 02:13:10;;;;;;;;;;;18.90;95.30;;;;;;5035462;28;19915;-68
2022/09/25 02:15:41;;;;;;;;;;;18.90;95.30;;;;;;5037136;28;19912;-68
2022/09/25 02:20:58;;;;;;;;;;;18.90;95.30;;;;;;5053724;28;20312;-68
2022/09/25 02:23:43;;;;;;;;;;;18.80;95.30;;;;;;5035039;28;20454;-68
2022/09/25 02:26:13;;;;;;;;;;;18.80;95.30;;;;;;5034867;28;20027;-68
2022/09/25 02:28:39;;;;;;;;;;;18.80;95.30;;;;;;5034912;28;19995;-68
2022/09/25 02:31:06;;;;;;;;;;;18.80;95.30;;;;;;5035303;28;20413;-68
2022/09/25 02:33:32;;;;;;;;;;;18.80;95.40;;;;;;5035757;28;20271;-68
2022/09/25 02:36:00;;;;;;;;;;;18.80;95.40;;;;;;5036184;28;19909;-69
2022/09/25 02:38:25;;;;;;;;;;;18.80;95.40;;;;;;5037558;28;19912;-68
2022/09/25 02:40:51;;;;;;;;;;;18.80;95.40;;;;;;5037430;28;20011;-69
2022/09/25 02:43:33;;;;;;;;;;;18.80;95.40;;;;;;5038095;28;19912;-68
2022/09/25 02:46:06;;;;;;;;;;;18.80;95.40;;;;;;5038659;28;20291;-68
2022/09/25 02:48:34;;;;;;;;;;;18.80;95.40;;;;;;5036516;28;20509;-69
2022/09/25 02:51:11;;;;;;;;;;;18.80;95.40;;;;;;5038096;28;20243;-68
2022/09/25 02:53:51;;;;;;;;;;;18.80;95.40;;;;;;5037649;28;19919;-68
2022/09/25 02:56:20;;;;;;;;;;;18.80;95.40;;;;;;5037565;28;19909;-68
2022/09/25 02:58:51;;;;;;;;;;;18.80;95.40;;;;;;5039038;28;19995;-68
2022/09/25 03:01:18;;;;;;;;;;;18.80;95.40;;;;;;5038100;28;19920;-68
2022/09/25 03:03:45;;;;;;;;;;;18.80;95.40;;;;;;5037424;28;19908;-68
2022/09/25 03:06:10;;;;;;;;;;;18.80;95.40;;;;;;5036276;28;20206;-68
2022/09/25 03:08:42;;;;;;;;;;;18.80;95.40;;;;;;5037957;28;19909;-68
2022/09/25 03:11:12;;;;;;;;;;;18.70;95.60;;;;;;5037525;28;19920;-66
2022/09/25 03:13:38;;;;;;;;;;;18.70;95.40;;;;;;5038321;28;19913;-68
2022/09/25 03:16:19;;;;;;;;;;;18.80;95.40;;;;;;5038395;28;19909;-69
2022/09/25 03:18:45;;;;;;;;;;;18.70;95.40;;;;;;5040809;28;19908;-68
2022/09/25 03:21:11;;;;;;;;;;;18.70;95.40;;;;;;5041828;28;19909;-68
2022/09/25 03:23:37;;;;;;;;;;;18.70;95.40;;;;;;5042426;28;19908;-68
2022/09/25 03:26:03;;;;;;;;;;;18.70;95.40;;;;;;5042028;28;19920;-68
2022/09/25 03:28:29;;;;;;;;;;;18.70;95.40;;;;;;5041910;28;19912;-68
2022/09/25 03:30:57;;;;;;;;;;;18.70;95.40;;;;;;5041467;28;19909;-68
2022/09/25 03:33:22;;;;;;;;;;;18.70;95.40;;;;;;5041467;28;19928;-68
2022/09/25 03:35:58;;;;;;;;;;;18.70;95.40;;;;;;5059163;28;19917;-69
2022/09/25 03:38:24;;;;;;;;;;;18.70;95.40;;;;;;5041192;28;20077;-68
2022/09/25 03:40:49;;;;;;;;;;;18.70;95.40;;;;;;5041157;28;19935;-68
2022/09/25 03:43:15;;;;;;;;;;;18.70;95.40;;;;;;5041491;28;20190;-68
2022/09/25 03:45:40;;;;;;;;;;;18.70;95.40;;;;;;5040765;28;20165;-68
2022/09/25 03:48:06;;;;;;;;;;;18.70;95.40;;;;;;5041140;28;19909;-68
2022/09/25 03:50:32;;;;;;;;;;;18.70;95.50;;;;;;5041653;28;19917;-69
2022/09/25 03:52:57;;;;;;;;;;;18.70;95.50;;;;;;5041076;28;19917;-69
2022/09/25 03:55:24;;;;;;;;;;;18.70;95.40;;;;;;5040897;28;20195;-68
2022/09/25 03:57:50;;;;;;;;;;;18.70;95.50;;;;;;5041106;28;19916;-68
2022/09/25 04:00:16;;;;;;;;;;;18.70;95.50;;;;;;5041053;28;19909;-68
2022/09/25 04:02:42;;;;;;;;;;;18.70;95.50;;;;;;5039581;28;19909;-67
2022/09/25 04:05:08;;;;;;;;;;;18.70;95.50;;;;;;5040569;28;19909;-68
2022/09/25 04:07:34;;;;;;;;;;;18.60;95.40;;;;;;5040894;28;20182;-69
2022/09/25 04:10:00;;;;;;;;;;;18.70;95.50;;;;;;5040412;28;19909;-68
2022/09/25 04:12:26;;;;;;;;;;;18.60;95.40;;;;;;5040796;28;20168;-68
2022/09/25 04:14:51;;;;;;;;;;;18.60;95.40;;;;;;5040839;28;19917;-68
2022/09/25 04:17:17;;;;;;;;;;;18.60;95.50;;;;;;5041058;28;19909;-68
2022/09/25 04:19:43;;;;;;;;;;;18.60;95.40;;;;;;5040456;28;19909;-68
2022/09/25 04:22:09;;;;;;;;;;;18.60;95.50;;;;;;5041212;28;19913;-68
2022/09/25 04:24:49;;;;;;;;;;;18.60;95.50;;;;;;5040420;28;20011;-68
2022/09/25 04:27:18;;;;;;;;;;;18.60;95.50;;;;;;5040081;28;20292;-68
2022/09/25 04:29:45;;;;;;;;;;;18.60;95.50;;;;;;5038822;28;19924;-68
2022/09/25 04:34:54;;;;;;;;;;;18.60;95.50;;;;;;5057276;28;20007;-68
2022/09/25 04:37:25;;;;;;;;;;;18.60;95.50;;;;;;5039896;28;19909;-68
2022/09/25 04:39:51;;;;;;;;;;;18.60;95.50;;;;;;5040413;28;19909;-68
2022/09/25 04:42:17;;;;;;;;;;;18.60;95.50;;;;;;5039412;28;19987;-68
2022/09/25 04:44:44;;;;;;;;;;;18.60;95.50;;;;;;5037965;28;19909;-68
2022/09/25 04:47:09;;;;;;;;;;;18.60;95.60;;;;;;5055810;28;19913;-68
2022/09/25 04:49:37;;;;;;;;;;;18.60;95.60;;;;;;5038540;28;20152;-68
2022/09/25 04:52:02;;;;;;;;;;;18.60;95.50;;;;;;5038466;28;19999;-68
2022/09/25 04:54:28;;;;;;;;;;;18.60;95.50;;;;;;5038401;28;20330;-68
2022/09/25 04:56:54;;;;;;;;;;;18.60;95.50;;;;;;5039122;28;20353;-68
2022/09/25 04:59:19;;;;;;;;;;;18.60;95.50;;;;;;5039250;28;19912;-68
2022/09/25 05:01:46;;;;;;;;;;;18.60;95.50;;;;;;5039030;28;19908;-68
2022/09/25 05:04:13;;;;;;;;;;;18.50;95.60;;;;;;5039361;28;19909;-68
2022/09/25 05:06:38;;;;;;;;;;;18.50;95.60;;;;;;5038237;28;19979;-68
2022/09/25 05:09:04;;;;;;;;;;;18.50;95.60;;;;;;5038589;28;19909;-68
2022/09/25 05:11:29;;;;;;;;;;;18.50;95.60;;;;;;5038378;28;19909;-68
2022/09/25 05:13:56;;;;;;;;;;;18.50;95.60;;;;;;5038613;28;19916;-68
2022/09/25 05:16:22;;;;;;;;;;;18.50;95.60;;;;;;5038472;28;19920;-69
2022/09/25 05:18:48;;;;;;;;;;;18.50;95.60;;;;;;5037298;28;20063;-68
2022/09/25 05:21:13;;;;;;;;;;;18.50;95.60;;;;;;5037604;28;19920;-68
2022/09/25 05:23:39;;;;;;;;;;;18.50;95.70;;;;;;5038626;28;20019;-68
2022/09/25 05:26:04;;;;;;;;;;;18.50;95.70;;;;;;5038232;28;19913;-68
2022/09/25 05:28:30;;;;;;;;;;;18.50;95.70;;;;;;5038623;28;20006;-68
2022/09/25 05:31:02;;;;;;;;;;;18.40;95.60;;;;;;5037420;28;20003;-68
2022/09/25 05:33:31;;;;;;;;;;;18.50;95.70;;;;;;5037544;28;20004;-68
2022/09/25 05:36:03;;;;;;;;;;;18.40;95.70;;;;;;5037690;28;19929;-68
2022/09/25 05:38:33;;;;;;;;;;;18.40;95.70;;;;;;5036999;28;19909;-68
2022/09/25 05:41:03;;;;;;;;;;;18.50;95.70;;;;;;5036341;28;20243;-68
2022/09/25 05:43:30;;;;;;;;;;;18.40;95.70;;;;;;5037145;28;19909;-68
2022/09/25 05:45:56;;;;;;;;;;;18.40;95.70;;;;;;5034943;28;19941;-68
2022/09/25 05:48:22;;;;;;;;;;;18.50;95.70;;;;;;5036038;28;19916;-68
2022/09/25 05:50:51;;;;;;;;;;;18.50;95.70;;;;;;5036879;28;19909;-67
2022/09/25 05:53:17;;;;;;;;;;;18.50;95.60;;;;;;5036335;28;19944;-68
2022/09/25 05:55:48;;;;;;;;;;;18.50;95.60;;;;;;5037326;28;19979;-68
2022/09/25 05:58:14;;;;;;;;;;;18.50;95.60;;;;;;5038906;28;20247;-68
2022/09/25 06:00:41;;;;;;;;;;;18.40;95.50;;;;;;5038518;28;20011;-68
2022/09/25 06:03:07;;;;;;;;;;;18.50;95.50;;;;;;5048719;28;19916;-68
2022/09/25 06:05:32;;;;;;;;;;;18.50;95.50;;;;;;5044040;28;20394;-68
2022/09/25 06:07:58;;;;;;;;;;;18.50;95.50;;;;;;5037554;28;20307;-68
2022/09/25 06:10:25;;;;;;;;;;;18.50;95.40;;;;;;5037384;28;19956;-68
2022/09/25 06:12:54;;;;;;;;;;;18.50;95.30;;;;;;5037341;28;19915;-68
2022/09/25 06:15:22;;;;;;;;;;;18.50;95.30;;;;;;5038740;28;19920;-68
2022/09/25 06:17:48;;;;;;;;;;;18.50;95.20;;;;;;5037063;28;19920;-68
2022/09/25 06:20:14;;;;;;;;;;;18.60;95.20;;;;;;5038316;28;19962;-68
2022/09/25 06:22:39;;;;;;;;;;;18.60;95.10;;;;;;5038218;28;20011;-68
2022/09/25 06:25:05;;;;;;;;;;;18.60;95.10;;;;;;5037194;28;19916;-68
2022/09/25 06:27:32;;;;;;;;;;;18.60;95.00;;;;;;5036725;28;19913;-68
2022/09/25 06:29:58;;;;;;;;;;;18.70;94.90;;;;;;5036741;28;19909;-68
2022/09/25 06:32:23;;;;;;;;;;;18.90;94.60;;;;;;5037878;28;19917;-68
2022/09/25 06:34:49;;;;;;;;;;;19.10;93.60;;;;;;5036455;28;19974;-68
2022/09/25 06:37:15;;;;;;;;;;;19.70;92.70;;;;;;5037609;28;20271;-68
2022/09/25 06:39:40;;;;;;;;;;;20.60;90.30;;;;;;5036564;28;19908;-68
2022/09/25 06:42:06;;;;;;;;;;;21.30;84.90;;;;;;5036271;28;19919;-68
2022/09/25 06:44:32;;;;;;;;;;;21.90;79.60;;;;;;5036249;28;19909;-68
2022/09/25 06:46:58;;;;;;;;;;;22.10;76.00;;;;;;5035313;28;19924;-68
2022/09/25 06:49:24;;;;;;;;;;;22.50;73.10;;;;;;5033150;28;20284;-68
2022/09/25 06:51:50;;;;;;;;;;;22.30;72.70;;;;;;5032730;28;20146;-68
2022/09/25 06:54:15;;;;;;;;;;;21.80;74.60;;;;;;5039065;28;20298;-68
2022/09/25 06:56:41;;;;;;;;;;;21.50;77.00;;;;;;5039901;28;19909;-68
2022/09/25 06:59:08;;;;;;;;;;;21.50;77.60;;;;;;5039482;28;19948;-68
2022/09/25 07:01:34;;;;;;;;;;;22.10;75.20;;;;;;5039094;28;19916;-68
2022/09/25 07:04:00;;;;;;;;;;;23.10;69.60;;;;;;5037540;28;20164;-68
2022/09/25 07:06:27;;;;;;;;;;;23.70;65.20;;;;;;5037221;28;19917;-69
2022/09/25 07:08:55;;;;;;;;;;;24.10;62.10;;;;;;5037618;28;20164;-68
2022/09/25 07:11:22;;;;;;;;;;;24.60;59.80;;;;;;5035987;28;19916;-68
2022/09/25 07:13:53;;;;;;;;;;;25.00;58.50;;;;;;5036909;28;20068;-69
2022/09/25 07:16:20;;;;;;;;;;;25.30;57.70;;;;;;5036246;28;20246;-69
2022/09/25 07:18:45;;;;;;;;;;;25.60;56.80;;;;;;5037040;28;19909;-69
2022/09/25 07:21:21;;;;;;;;;;;25.80;56.10;;;;;;5037611;28;19904;-69
2022/09/25 07:23:47;;;;;;;;;;;26.10;55.60;;;;;;5055769;28;19909;-69
2022/09/25 07:26:14;;;;;;;;;;;26.30;55.00;;;;;;5038623;28;19913;-69
2022/09/25 07:28:41;;;;;;;;;;;26.50;54.50;;;;;;5037609;28;19909;-69
2022/09/25 07:31:11;;;;;;;;;;;26.70;54.00;;;;;;5037977;28;20088;-69
2022/09/25 07:33:37;;;;;;;;;;;27.00;53.50;;;;;;5038018;28;20007;-68
2022/09/25 07:36:02;;;;;;;;;;;27.10;53.00;;;;;;5036354;28;20218;-69
2022/09/25 07:38:28;;;;;;;;;;;27.30;52.60;;;;;;5036731;28;19909;-69
2022/09/25 07:40:53;;;;;;;;;;;27.50;52.20;;;;;;5037010;28;19909;-69
2022/09/25 07:43:19;;;;;;;;;;;27.70;51.80;;;;;;5036450;28;19909;-70
2022/09/25 07:45:48;;;;;;;;;;;28.00;51.50;;;;;;5035582;28;19954;-70
2022/09/25 07:48:14;;;;;;;;;;;28.20;51.10;;;;;;5034020;28;19940;-70
2022/09/25 07:50:40;;;;;;;;;;;28.30;50.70;;;;;;5035973;28;19957;-70
2022/09/25 07:53:05;;;;;;;;;;;28.40;50.50;;;;;;5035713;28;19920;-69
2022/09/25 07:55:31;;;;;;;;;;;27.20;50.70;;;;;;5036463;28;19908;-69
2022/09/25 07:57:57;;;;;;;;;;;26.10;51.90;;;;;;5036508;28;19912;-70
2022/09/25 08:00:23;;;;;;;;;;;25.20;53.20;;;;;;5036357;28;20096;-69
2022/09/25 08:02:56;;;;;;;;;;;24.60;54.30;;;;;;5036629;28;19908;-69
2022/09/25 08:05:21;;;;;;;;;;;24.00;55.50;;;;;;5037236;28;19909;-69
2022/09/25 08:07:47;;;;;;;;;;;23.60;56.90;;;;;;5035964;28;20191;-69
2022/09/25 08:10:13;;;;;;;;;;;23.30;58.00;;;;;;5036213;28;19919;-69
2022/09/25 08:12:39;;;;;;;;;;;23.00;59.20;;;;;;5035812;28;20062;-69
2022/09/25 08:15:05;;;;;;;;;;;22.90;60.30;;;;;;5035659;28;19909;-70
2022/09/25 08:17:31;;;;;;;;;;;23.10;60.50;;;;;;5037410;28;19909;-69
2022/09/25 08:19:57;;;;;;;;;;;23.60;59.90;;;;;;5037598;28;19935;-69
2022/09/25 08:22:23;;;;;;;;;;;24.00;58.60;;;;;;5037113;28;20148;-69
2022/09/25 08:24:48;;;;;;;;;;;24.90;58.60;;;;;;5037631;28;20141;-69
2022/09/25 08:27:14;;;;;;;;;;;25.90;56.10;;;;;;5036824;28;19920;-69
2022/09/25 08:29:39;;;;;;;;;;;25.20;55.90;;;;;;5036587;28;20257;-69
2022/09/25 08:32:05;;;;;;;;;;;24.80;56.30;;;;;;5036401;28;20295;-69
2022/09/25 08:34:31;;;;;;;;;;;25.20;57.50;;;;;;5035823;28;19956;-69
2022/09/25 08:36:57;;;;;;;;;;;25.50;56.50;;;;;;5037715;28;19967;-69
2022/09/25 08:39:22;;;;;;;;;;;24.70;57.30;;;;;;5035572;28;20256;-69
2022/09/25 08:41:50;;;;;;;;;;;24.10;59.00;;;;;;5036606;28;20263;-69
2022/09/25 08:44:29;;;;;;;;;;;24.20;59.40;;;;;;5035709;28;20128;-69
2022/09/25 08:49:59;;;;;;;;;;;23.30;63.60;;;;;;5051072;28;19919;-69
2022/09/25 08:52:25;;;;;;;;;;;23.80;62.80;;;;;;5035293;28;19920;-69
2022/09/25 08:54:51;;;;;;;;;;;24.40;59.80;;;;;;5033887;28;19909;-69
2022/09/25 08:57:28;;;;;;;;;;;25.60;58.80;;;;;;5035691;28;20062;-69
2022/09/25 08:59:56;;;;;;;;;;;26.30;56.10;;;;;;5034748;28;19956;-69
2022/09/25 09:02:23;;;;;;;;;;;27.40;55.10;;;;;;5034333;28;19917;-69
2022/09/25 09:04:50;;;;;;;;;;;28.30;53.50;;;;;;5035010;28;19956;-68
2022/09/25 09:07:21;;;;;;;;;;;29.00;52.30;;;;;;5034392;28;20087;-69
2022/09/25 09:09:53;;;;;;;;;;;29.50;51.40;;;;;;5034822;28;19982;-69
2022/09/25 09:12:21;;;;;;;;;;;29.90;50.70;;;;;;5033341;28;19939;-69
2022/09/25 09:14:48;;;;;;;;;;;30.30;49.90;;;;;;5032362;28;19944;-69
2022/09/25 09:17:21;;;;;;;;;;;30.50;49.50;;;;;;5033275;28;19909;-69
2022/09/25 09:19:50;;;;;;;;;;;30.70;49.20;;;;;;5032976;28;19908;-69
2022/09/25 09:22:19;;;;;;;;;;;30.80;48.80;;;;;;5033683;28;19909;-69
2022/09/25 09:24:45;;;;;;;;;;;31.00;48.40;;;;;;5031582;28;20167;-69
2022/09/25 09:27:23;;;;;;;;;;;31.20;48.10;;;;;;5032297;28;20328;-69
2022/09/25 09:29:51;;;;;;;;;;;31.20;47.80;;;;;;5033232;28;19944;-70
2022/09/25 09:32:26;;;;;;;;;;;31.20;47.50;;;;;;5033367;28;19966;-69
2022/09/25 09:35:03;;;;;;;;;;;31.30;47.30;;;;;;5031353;28;19919;-70
2022/09/25 09:37:32;;;;;;;;;;;31.30;46.80;;;;;;5030410;28;19919;-69
2022/09/25 09:40:01;;;;;;;;;;;31.30;46.60;;;;;;5033078;28;19913;-70
2022/09/25 09:42:33;;;;;;;;;;;31.30;46.50;;;;;;5031071;28;20164;-70
2022/09/25 09:45:01;;;;;;;;;;;31.20;46.50;;;;;;5031964;28;19909;-69
2022/09/25 09:47:48;;;;;;;;;;;30.80;46.40;;;;;;5031885;28;20115;-70
2022/09/25 09:50:27;;;;;;;;;;;29.10;46.40;;;;;;5031413;28;20270;-69
2022/09/25 09:53:00;;;;;;;;;;;27.30;48.20;;;;;;5032359;28;20271;-70
2022/09/25 09:55:31;;;;;;;;;;;26.20;49.60;;;;;;5031844;28;19920;-70
2022/09/25 09:58:03;;;;;;;;;;;25.60;50.30;;;;;;5031279;28;20157;-70
2022/09/25 10:00:29;;;;;;;;;;;25.20;50.10;;;;;;5032854;28;19909;-70
2022/09/25 10:03:02;;;;;;;;;;;24.80;50.70;;;;;;5032162;28;20133;-70
2022/09/25 10:05:30;;;;;;;;;;;24.50;51.50;;;;;;5048053;28;20058;-70
2022/09/25 10:07:56;;;;;;;;;;;24.30;51.90;;;;;;5029730;28;19912;-70
2022/09/25 10:10:30;;;;;;;;;;;24.10;52.60;;;;;;5028340;28;19913;-70
2022/09/25 10:12:58;;;;;;;;;;;24.00;53.00;;;;;;5027603;28;19909;-70
2022/09/25 10:15:32;;;;;;;;;;;23.80;53.50;;;;;;5028247;28;20266;-70
2022/09/25 10:17:59;;;;;;;;;;;23.70;53.70;;;;;;5028806;28;19916;-70
2022/09/25 10:20:29;;;;;;;;;;;23.60;53.90;;;;;;5029514;28;20248;-70
2022/09/25 10:22:56;;;;;;;;;;;23.50;54.00;;;;;;5028295;28;19992;-70
2022/09/25 10:25:38;;;;;;;;;;;23.30;53.70;;;;;;5029015;28;19913;-70
2022/09/25 10:28:20;;;;;;;;;;;23.20;53.80;;;;;;5028704;28;20258;-70
2022/09/25 10:30:46;;;;;;;;;;;23.10;54.20;;;;;;5032514;28;19956;-70
2022/09/25 10:33:21;;;;;;;;;;;23.00;54.50;;;;;;5030505;28;19990;-70
2022/09/25 10:35:47;;;;;;;;;;;23.00;55.00;;;;;;5034555;28;20183;-70
2022/09/25 10:38:32;;;;;;;;;;;23.00;55.40;;;;;;5034796;28;19924;-70
2022/09/25 10:41:10;;;;;;;;;;;22.90;55.80;;;;;;5033127;28;20408;-70
2022/09/25 10:43:58;;;;;;;;;;;22.90;56.30;;;;;;5031885;28;19908;-70
2022/09/25 10:52:13;;;;;;;;;;;22.80;57.60;;;;;;5051469;28;19919;-70
2022/09/25 10:54:39;;;;;;;;;;;22.70;57.90;;;;;;5032064;28;19909;-70
2022/09/25 10:57:34;;;;;;;;;;;22.70;58.30;;;;;;5031959;28;19909;-70
2022/09/25 11:00:01;;;;;;;;;;;22.70;58.80;;;;;;5025071;28;19909;-70
2022/09/25 11:02:36;;;;;;;;;;;22.60;59.10;;;;;;5034268;28;19916;-70
2022/09/25 11:05:01;;;;;;;;;;;22.60;59.40;;;;;;5034443;28;20215;-70
2022/09/25 11:07:27;;;;;;;;;;;22.60;59.50;;;;;;5032300;28;19912;-70
2022/09/25 11:09:53;;;;;;;;;;;22.60;59.80;;;;;;5031040;28;19920;-70
2022/09/25 11:12:22;;;;;;;;;;;22.50;60.10;;;;;;5031336;28;19963;-70
2022/09/25 11:15:04;;;;;;;;;;;22.50;60.80;;;;;;5032649;28;20154;-69
2022/09/25 11:17:37;;;;;;;;;;;22.40;61.40;;;;;;5029794;28;19931;-70
2022/09/25 11:20:12;;;;;;;;;;;22.40;62.10;;;;;;5030551;28;19909;-69
2022/09/25 11:22:39;;;;;;;;;;;22.30;62.60;;;;;;5030761;28;19916;-70
2022/09/25 11:25:11;;;;;;;;;;;22.30;63.10;;;;;;5030240;28;20001;-70
2022/09/25 11:27:41;;;;;;;;;;;22.30;63.50;;;;;;5029616;28;20013;-70
2022/09/25 11:30:15;;;;;;;;;;;22.30;63.90;;;;;;5029320;28;20263;-70
2022/09/25 11:32:59;;;;;;;;;;;22.20;64.30;;;;;;5030147;28;19925;-70
2022/09/25 11:35:35;;;;;;;;;;;22.20;64.80;;;;;;5031245;28;20256;-70
2022/09/25 11:38:04;;;;;;;;;;;22.20;64.80;;;;;;5032214;28;19946;-70
2022/09/25 11:43:34;;;;;;;;;;;22.10;65.80;;;;;;5050673;28;20006;-69
2022/09/25 11:46:03;;;;;;;;;;;22.10;66.40;;;;;;5032523;28;19956;-70
2022/09/25 11:48:49;;;;;;;;;;;22.00;66.90;;;;;;5029927;28;20443;-69
2022/09/25 11:51:15;;;;;;;;;;;22.00;67.20;;;;;;5031178;28;20114;-69
2022/09/25 11:54:07;;;;;;;;;;;22.00;67.30;;;;;;5030716;28;19979;-69
2022/09/25 11:56:42;;;;;;;;;;;22.00;67.40;;;;;;5032132;28;19916;-70
2022/09/25 11:59:27;;;;;;;;;;;22.00;67.60;;;;;;5031242;28;20168;-70
2022/09/25 12:02:14;;;;;;;;;;;22.10;67.70;;;;;;5033686;28;20194;-69
2022/09/25 12:04:51;;;;;;;;;;;22.10;67.90;;;;;;5031323;28;20267;-70
2022/09/25 12:07:43;;;;;;;;;;;22.00;68.10;;;;;;5030591;28;20141;-70
2022/09/25 12:10:27;;;;;;;;;;;22.00;68.50;;;;;;5013841;28;19924;-69
2022/09/25 12:13:06;;;;;;;;;;;22.00;68.80;;;;;;5030709;28;19925;-70
2022/09/25 12:15:46;;;;;;;;;;;21.90;68.50;;;;;;5030249;28;19909;-70
2022/09/25 12:18:20;;;;;;;;;;;21.90;69.10;;;;;;5048653;28;20271;-70
2022/09/25 12:20:46;;;;;;;;;;;21.90;68.80;;;;;;5029268;28;19908;-70
2022/09/25 12:23:18;;;;;;;;;;;21.90;69.00;;;;;;5029988;28;19909;-70
2022/09/25 12:25:44;;;;;;;;;;;21.90;68.90;;;;;;5031405;28;19932;-70
2022/09/25 12:28:16;;;;;;;;;;;21.80;68.80;;;;;;5029508;28;19909;-70
2022/09/25 12:30:57;;;;;;;;;;;21.80;69.60;;;;;;5031528;28;19944;-69
2022/09/25 12:33:31;;;;;;;;;;;21.70;70.70;;;;;;5031161;28;19946;-69
2022/09/25 12:36:02;;;;;;;;;;;21.60;71.30;;;;;;5029268;28;19909;-70
2022/09/25 12:38:38;;;;;;;;;;;21.70;71.20;;;;;;5030045;28;19917;-69
2022/09/25 12:41:05;;;;;;;;;;;21.70;71.20;;;;;;5032098;28;20186;-67
2022/09/25 12:43:40;;;;;;;;;;;21.70;71.40;;;;;;5032367;28;19948;-69
2022/09/25 12:46:17;;;;;;;;;;;21.70;71.50;;;;;;5031505;28;19920;-68
2022/09/25 12:49:00;;;;;;;;;;;21.70;71.80;;;;;;5031431;28;19920;-69
2022/09/25 12:51:26;;;;;;;;;;;21.70;71.60;;;;;;5030145;28;19912;-69
2022/09/25 12:54:00;;;;;;;;;;;21.70;72.10;;;;;;5032189;28;20266;-67
2022/09/25 12:56:25;;;;;;;;;;;21.60;72.30;;;;;;5032766;28;19944;-69
2022/09/25 12:59:00;;;;;;;;;;;21.60;72.60;;;;;;5047668;28;19920;-69
2022/09/25 13:01:30;;;;;;;;;;;21.60;73.00;;;;;;5034117;28;19913;-69
2022/09/25 13:04:17;;;;;;;;;;;21.60;73.10;;;;;;5030773;28;19917;-69
2022/09/25 13:06:51;;;;;;;;;;;21.60;73.30;;;;;;5030708;28;20450;-69
2022/09/25 13:09:20;;;;;;;;;;;21.60;73.30;;;;;;5029888;28;19970;-69
2022/09/25 13:11:52;;;;;;;;;;;21.50;73.30;;;;;;5029101;28;19909;-69
2022/09/25 13:14:29;;;;;;;;;;;21.50;73.50;;;;;;5029140;28;19909;-69
2022/09/25 13:16:56;;;;;;;;;;;21.50;74.10;;;;;;5029331;28;19908;-69
2022/09/25 13:19:21;;;;;;;;;;;21.50;73.80;;;;;;5029820;28;19939;-69
2022/09/25 13:21:47;;;;;;;;;;;21.50;73.90;;;;;;5029745;28;20257;-69
2022/09/25 13:24:14;;;;;;;;;;;21.50;74.20;;;;;;5031450;28;20214;-68
2022/09/25 13:26:47;;;;;;;;;;;21.50;74.30;;;;;;5030969;28;19932;-69
2022/09/25 13:29:26;;;;;;;;;;;21.50;74.40;;;;;;5030688;28;19923;-68
2022/09/25 13:32:01;;;;;;;;;;;21.50;74.40;;;;;;5029608;28;19944;-69
2022/09/25 13:34:26;;;;;;;;;;;21.50;74.80;;;;;;5031406;28;19917;-69
2022/09/25 13:36:54;;;;;;;;;;;21.40;74.90;;;;;;5033120;28;19909;-68
2022/09/25 13:42:20;;;;;;;;;;;21.50;75.10;;;;;;5050169;28;19916;-68
2022/09/25 13:44:51;;;;;;;;;;;21.50;75.30;;;;;;5030337;28;20286;-69
2022/09/25 13:47:23;;;;;;;;;;;21.50;75.10;;;;;;5029937;28;20000;-69
2022/09/25 13:50:05;;;;;;;;;;;21.50;75.10;;;;;;5031782;28;19920;-69
2022/09/25 13:53:15;;;;;;;;;;;21.50;75.00;;;;;;5029236;28;19995;-69
2022/09/25 13:55:41;;;;;;;;;;;21.50;74.80;;;;;;5035519;28;20010;-69
2022/09/25 13:58:19;;;;;;;;;;;21.50;75.00;;;;;;5032056;28;19916;-69
2022/09/25 14:00:45;;;;;;;;;;;21.50;74.80;;;;;;5031965;28;19909;-69
2022/09/25 14:03:30;;;;;;;;;;;21.50;75.30;;;;;;5026762;28;19920;-69
2022/09/25 14:06:00;;;;;;;;;;;21.50;75.50;;;;;;5028778;28;19932;-69
2022/09/25 14:08:29;;;;;;;;;;;21.50;75.80;;;;;;5031064;28;19960;-69
2022/09/25 14:10:56;;;;;;;;;;;21.50;75.80;;;;;;5032122;28;19909;-69
2022/09/25 14:13:22;;;;;;;;;;;21.40;76.00;;;;;;5030629;28;20311;-68
2022/09/25 14:15:49;;;;;;;;;;;21.40;76.00;;;;;;5029804;28;19909;-69
2022/09/25 14:18:17;;;;;;;;;;;21.40;76.30;;;;;;5030958;28;20210;-69
2022/09/25 14:20:44;;;;;;;;;;;21.40;76.90;;;;;;5030437;28;19968;-69
2022/09/25 14:23:12;;;;;;;;;;;21.40;76.30;;;;;;5031143;28;20003;-69
2022/09/25 14:25:41;;;;;;;;;;;21.40;76.50;;;;;;5027894;28;19920;-69
2022/09/25 14:28:17;;;;;;;;;;;21.40;76.60;;;;;;5027764;28;19908;-69
2022/09/25 14:30:51;;;;;;;;;;;21.40;76.80;;;;;;5029321;28;19919;-69
2022/09/25 14:33:35;;;;;;;;;;;21.30;76.80;;;;;;5029247;28;19917;-69
2022/09/25 14:36:21;;;;;;;;;;;21.30;77.00;;;;;;5030732;28;19909;-69
2022/09/25 14:38:52;;;;;;;;;;;21.30;77.20;;;;;;5029742;28;20267;-69
2022/09/25 14:41:24;;;;;;;;;;;21.30;77.50;;;;;;5030096;28;19973;-69
2022/09/25 14:44:05;;;;;;;;;;;21.30;77.50;;;;;;5029732;28;20306;-69
2022/09/25 14:46:31;;;;;;;;;;;21.30;77.70;;;;;;5031442;28;20195;-69
2022/09/25 14:48:59;;;;;;;;;;;21.30;77.60;;;;;;5032690;28;19909;-69
2022/09/25 14:51:28;;;;;;;;;;;21.30;77.60;;;;;;5030800;28;20445;-69